This is the latest recevied weather packets stored in our database for station/object DK8RG-15. If no packets are shown the sender has not sent any weather packets the latest 1 day(s).
| Time | Temp. | Humidity | Pressure | Rain* | Wind** | Luminosity | Snow |
|---|---|---|---|---|---|---|---|
| 1778055018 | 15° C | 69% | 1002.5 hPa | 0 mm | - | - | - |
| 1778054418 | 15.56° C | 69% | 1002.5 hPa | 0 mm | - | - | - |
| 1778053818 | 16.11° C | 69% | 1001.6 hPa | 0 mm | - | - | - |
| 1778052618 | 15° C | 71% | 1002.5 hPa | 0 mm | - | - | - |
| 1778052019 | 15° C | 72% | 1002.6 hPa | 0 mm | - | - | - |
| 1778049619 | 13.89° C | 79% | 1002.7 hPa | 0 mm | - | - | - |
| 1778049019 | 13.89° C | 81% | 1002.7 hPa | 0 mm | - | - | - |
| 1778047819 | 12.78° C | 85% | 1002.6 hPa | 0 mm | - | - | - |
| 1778047220 | 12.22° C | 85% | 1002.5 hPa | 0 mm | - | - | - |
| 1778046020 | 12.22° C | 86% | 1002.6 hPa | 0 mm | - | - | - |
| 1778044820 | 12.22° C | 86% | 1002.6 hPa | 0 mm | - | - | - |
| 1778044220 | 12.22° C | 86% | 1001.6 hPa | 0 mm | - | - | - |
| 1778043619 | 12.22° C | 86% | 1001.6 hPa | 0 mm | - | - | - |
| 1778043020 | 12.22° C | 86% | 1001.7 hPa | 0 mm | - | - | - |
| 1778042419 | 12.22° C | 87% | 1001.7 hPa | 0 mm | - | - | - |
| 1778041820 | 11.67° C | 87% | 1001.6 hPa | 0 mm | - | - | - |
| 1778040620 | 11.11° C | 87% | 1001.6 hPa | 0 mm | - | - | - |
| 1778039432 | 11.11° C | 87% | 1001.7 hPa | 0 mm | - | - | - |
| 1778038819 | 11.11° C | 87% | 1001.7 hPa | 0 mm | - | - | - |
| 1778037620 | 11.11° C | 87% | 1001.6 hPa | 0 mm | - | - | - |
| 1778037019 | 11.11° C | 86% | 1001.6 hPa | 0 mm | - | - | - |
| 1778035820 | 12.22° C | 85% | 1001.8 hPa | 0 mm | - | - | - |
| 1778034620 | 12.22° C | 86% | 1001.8 hPa | 0 mm | - | - | - |
| 1778033420 | 12.22° C | 86% | 1002.9 hPa | 0 mm | - | - | - |
| 1778032219 | 12.22° C | 86% | 1002.8 hPa | 0 mm | - | - | - |
* Rain latest hour (hover to see other rain measurements)
** Current wind speed in m/s (hover to see current wind gust speed)